Glass, Virginia
Current Conditions -  °F | °C
As of 12:54 AM on Thursday 18 Dec 2014 (Local Time) from KPHF Reporting Station
Clear Clear  
Wind Chill: 39°   Ceiling: Unl
Heat Index: 44°   Visibility: 10mi
Dew Point: 29°   Wind: 9mph
Humidity: 55%   Direction: 360°N
Pressure: 30.06"   Gusts: NA
Location:  37.3028°N, 76.4825°W
Report Text: KPHF 180554Z 36008KT 10SM CLR 07/M02 A3006 RMK AO2 SLP180 T00671017 10117 20061 53015
Loading
Personal Weather Stations






























Interactive Weather Map New forecast layout! Learn more

10-Day Weather Forecast

Advertisements
Track Severe Weather on mobile